Time;durP1;ratioP1;P1;durP2;ratioP2;P2;SDS_P1;SDS_P2;PMS_P1;PMS_P2;Temp;Humidity;BMP_temperature;BMP_pressure;BME280_temperature;BME280_humidity;BME280_pressure;Samples;Min_cycle;Max_cycle;Signal;HPM_P1;HPM_P2
2022/03/31 00:00:54;;;;;;;;;36.75;29.25;;;;;14.95;59.34;100476.69;146608;659;46020;-69
2022/03/31 00:03:47;;;;;;;;;34.25;29.00;;;;;14.19;59.69;100343.06;146604;585;46010;-68
2022/03/31 00:06:39;;;;;;;;;35.75;28.50;;;;;14.93;59.45;100470.56;146607;584;46021;-67
2022/03/31 00:09:31;;;;;;;;;28.50;27.50;;;;;14.87;58.82;100465.16;146603;632;46016;-67
2022/03/31 00:12:23;;;;;;;;;28.50;24.75;;;;;14.83;60.27;100461.56;146604;578;47008;-70
2022/03/31 00:15:15;;;;;;;;;31.25;27.00;;;;;14.76;59.29;100457.00;146604;579;46012;-69
2022/03/31 00:18:09;;;;;;;;;29.75;25.50;;;;;14.69;58.97;100461.16;146604;581;46020;-69
2022/03/31 00:21:01;;;;;;;;;31.75;23.75;;;;;14.66;58.49;100458.44;146604;677;46031;-69
2022/03/31 00:23:53;;;;;;;;;28.25;23.75;;;;;14.66;58.73;100452.34;146608;730;46008;-68
2022/03/31 00:26:46;;;;;;;;;29.25;26.25;;;;;14.65;58.36;100459.28;146603;599;46011;-69
2022/03/31 00:29:37;;;;;;;;;29.25;22.75;;;;;14.65;58.58;100459.28;146605;593;46021;-69
2022/03/31 00:32:30;;;;;;;;;25.00;21.75;;;;;14.69;58.37;100463.75;146601;592;47010;-69
2022/03/31 00:35:23;;;;;;;;;35.00;28.25;;;;;14.72;58.84;100444.69;146602;591;47008;-69
2022/03/31 00:38:15;;;;;;;;;49.50;39.50;;;;;14.70;59.20;100439.44;146602;610;47012;-70
2022/03/31 00:41:07;;;;;;;;;36.75;30.75;;;;;14.62;60.06;100424.41;146606;589;46020;-70
2022/03/31 00:44:00;;;;;;;;;43.75;32.25;;;;;14.53;58.98;100417.16;146604;599;46017;-69
2022/03/31 00:46:53;;;;;;;;;37.75;30.25;;;;;14.49;59.14;100424.00;146608;565;46008;-70
2022/03/31 00:49:46;;;;;;;;;23.75;21.00;;;;;14.51;58.96;100427.53;146601;592;47013;-70
2022/03/31 00:52:38;;;;;;;;;28.50;26.00;;;;;14.51;58.92;100417.09;146602;613;47012;-70
2022/03/31 00:55:31;;;;;;;;;25.75;24.25;;;;;14.51;60.54;100416.22;146603;569;47012;-70
2022/03/31 00:58:23;;;;;;;;;27.25;23.25;;;;;14.45;59.66;100414.28;146605;588;46021;-69
2022/03/31 01:01:18;;;;;;;;;31.75;26.50;;;;;14.41;59.50;100408.94;146603;566;46030;-70
2022/03/31 01:04:11;;;;;;;;;30.25;28.00;;;;;14.37;59.93;100404.47;146607;574;46008;-69
2022/03/31 01:07:05;;;;;;;;;28.25;25.25;;;;;14.37;60.00;100394.03;146606;628;46016;-69
2022/03/31 01:09:58;;;;;;;;;35.50;27.75;;;;;14.38;60.90;100387.97;146607;596;46020;-69
2022/03/31 01:12:50;;;;;;;;;28.25;25.25;;;;;14.36;61.24;100400.06;146605;576;46010;-69
2022/03/31 01:15:42;;;;;;;;;28.00;23.75;;;;;14.32;61.33;100407.78;146604;571;46020;-69
2022/03/31 01:18:35;;;;;;;;;30.75;27.00;;;;;14.34;61.72;100394.81;146602;637;46019;-70
2022/03/31 01:21:27;;;;;;;;;29.75;28.00;;;;;14.35;61.61;100407.00;146604;599;46021;-69
2022/03/31 01:24:19;;;;;;;;;31.25;26.25;;;;;13.49;61.45;100252.25;146601;582;47012;-69
2022/03/31 01:27:11;;;;;;;;;31.75;27.00;;;;;14.29;64.71;100386.84;146607;578;46021;-72
2022/03/31 01:30:04;;;;;;;;;39.75;30.00;;;;;14.25;62.75;100400.63;146601;575;47012;-72
2022/03/31 01:32:56;;;;;;;;;32.25;27.75;;;;;14.19;62.37;100392.63;146606;590;46020;-72
2022/03/31 01:35:48;;;;;;;;;32.25;29.75;;;;;14.21;62.47;100400.50;146603;585;46017;-71
2022/03/31 01:38:41;;;;;;;;;36.25;30.75;;;;;14.21;61.50;100398.78;146605;569;47008;-72
2022/03/31 01:41:33;;;;;;;;;37.50;32.00;;;;;14.27;61.90;100398.97;146603;570;47010;-72
2022/03/31 01:44:25;;;;;;;;;35.50;31.50;;;;;14.31;61.74;100390.38;146606;652;46020;-71
2022/03/31 01:47:17;;;;;;;;;37.25;30.50;;;;;14.33;60.82;100393.06;146604;593;47010;-72
2022/03/31 01:50:11;;;;;;;;;33.25;29.25;;;;;14.33;62.84;100383.50;146606;593;46021;-73
2022/03/31 01:53:03;;;;;;;;;31.00;29.50;;;;;14.34;62.25;100373.97;146605;621;46010;-69
2022/03/31 01:55:54;;;;;;;;;33.75;28.75;;;;;14.36;61.57;100371.38;146606;650;46008;-69
2022/03/31 01:58:47;;;;;;;;;35.50;29.50;;;;;14.40;62.26;100357.62;146604;592;46016;-70
2022/03/31 02:01:39;;;;;;;;;37.00;30.00;;;;;14.44;61.23;100349.03;146606;575;46020;-70
2022/03/31 02:04:32;;;;;;;;;35.00;28.75;;;;;14.52;60.25;100351.06;146603;572;46017;-69
2022/03/31 02:07:24;;;;;;;;;25.50;23.00;;;;;14.59;61.55;100344.28;146604;565;46020;-69
2022/03/31 02:10:17;;;;;;;;;34.50;25.00;;;;;14.73;59.77;100336.84;146600;600;47010;-71
2022/03/31 02:13:09;;;;;;;;;26.00;24.00;;;;;14.85;59.00;100352.84;146606;611;46021;-71
2022/03/31 02:16:01;;;;;;;;;27.25;24.50;;;;;14.03;58.25;100189.66;146606;593;46016;-71
2022/03/31 02:18:54;;;;;;;;;18.25;17.00;;;;;15.13;57.38;100357.09;146603;608;47008;-71
2022/03/31 02:21:46;;;;;;;;;24.50;21.50;;;;;15.28;56.98;100343.56;146607;605;46016;-69
2022/03/31 02:24:39;;;;;;;;;26.00;21.50;;;;;15.38;56.63;100335.13;146605;598;46008;-69
2022/03/31 02:27:31;;;;;;;;;48.75;36.00;;;;;15.48;56.61;100347.59;146604;581;46017;-69
2022/03/31 02:30:24;;;;;;;;;23.75;21.75;;;;;15.56;56.34;100339.06;146604;597;46020;-68
2022/03/31 02:33:16;;;;;;;;;33.75;28.75;;;;;15.59;56.62;100336.50;146603;572;46010;-70
2022/03/31 02:36:09;;;;;;;;;22.50;19.00;;;;;15.62;56.21;100342.69;146603;609;46020;-68
2022/03/31 02:39:02;;;;;;;;;21.25;17.00;;;;;15.64;56.33;100353.22;146598;598;46016;-67
2022/03/31 02:41:54;;;;;;;;;26.00;21.50;;;;;15.65;56.24;100334.06;146607;613;47008;-67
2022/03/31 02:44:47;;;;;;;;;20.00;17.00;;;;;15.66;55.72;100321.00;146606;583;45912;-67
2022/03/31 02:47:39;;;;;;;;;26.50;19.00;;;;;15.69;55.84;100315.00;146607;573;46020;-69
2022/03/31 02:50:31;;;;;;;;;22.75;18.00;;;;;15.72;54.76;100308.97;146604;570;47010;-68
2022/03/31 02:56:34;;;;;;;;;19.00;15.50;;;;;15.81;54.48;100317.03;146600;566;46017;-73
2022/03/31 02:59:26;;;;;;;;;19.00;15.75;;;;;15.88;54.43;100304.13;146606;599;46020;-71
2022/03/31 03:02:18;;;;;;;;;17.50;14.75;;;;;15.94;54.81;100300.78;146603;665;46016;-70
2022/03/31 03:05:11;;;;;;;;;13.25;11.00;;;;;15.98;53.99;100301.72;146607;650;46020;-70
2022/03/31 03:08:03;;;;;;;;;23.25;18.50;;;;;16.04;54.07;100305.34;146602;570;46030;-70
2022/03/31 03:10:55;;;;;;;;;21.00;17.00;;;;;16.09;52.92;100295.00;146605;608;46021;-69
2022/03/31 03:13:50;;;;;;;;;20.25;13.25;;;;;16.14;53.39;100281.19;146603;569;47012;-70
2022/03/31 03:16:43;;;;;;;;;21.00;17.00;;;;;16.17;52.84;100283.00;146604;577;46020;-69
2022/03/31 03:19:35;;;;;;;;;19.25;15.25;;;;;16.26;52.95;100279.66;146604;641;46011;-69
2022/03/31 03:22:27;;;;;;;;;9.75;9.00;;;;;16.28;52.73;100264.91;146608;571;46024;-69
2022/03/31 03:25:20;;;;;;;;;16.00;14.75;;;;;16.30;53.37;100260.59;146602;565;47010;-69
2022/03/31 03:28:13;;;;;;;;;24.00;18.00;;;;;16.31;52.39;100251.88;146602;633;46021;-69
2022/03/31 03:31:05;;;;;;;;;22.50;16.25;;;;;16.33;53.03;100224.03;146602;626;47010;-70
2022/03/31 03:33:57;;;;;;;;;17.75;13.75;;;;;16.32;52.68;100210.06;146605;604;47008;-70
2022/03/31 03:36:49;;;;;;;;;20.00;14.75;;;;;16.33;52.72;100195.25;146601;717;46912;-70
2022/03/31 03:39:44;;;;;;;;;22.00;17.00;;;;;16.38;53.28;100231.09;146603;574;46020;-70
2022/03/31 03:42:38;;;;;;;;;23.50;18.50;;;;;16.44;52.84;100253.00;146602;599;47010;-72
2022/03/31 03:45:30;;;;;;;;;20.25;17.00;;;;;16.43;53.34;100243.41;146607;589;46020;-70
2022/03/31 03:48:22;;;;;;;;;19.50;16.50;;;;;16.43;53.80;100282.66;146604;599;46017;-70
2022/03/31 03:51:14;;;;;;;;;23.00;17.25;;;;;16.39;54.42;100290.44;146609;604;46020;-69
2022/03/31 03:54:06;;;;;;;;;18.75;14.25;;;;;16.38;54.71;100330.53;146603;667;46016;-71
2022/03/31 03:56:58;;;;;;;;;23.25;17.00;;;;;16.33;55.11;100358.34;146608;597;47008;-70
2022/03/31 03:59:50;;;;;;;;;14.50;14.00;;;;;16.31;56.28;100377.47;146599;636;46035;-70
2022/03/31 04:02:43;;;;;;;;;13.25;12.75;;;;;16.28;56.03;100388.75;146606;619;46008;-69
2022/03/31 04:05:35;;;;;;;;;19.00;16.25;;;;;16.23;57.53;100398.22;146602;575;46016;-71
2022/03/31 04:08:27;;;;;;;;;23.25;16.00;;;;;16.21;57.73;100404.28;146605;754;47008;-70
2022/03/31 04:11:19;;;;;;;;;22.25;17.25;;;;;16.12;59.04;100412.78;146604;623;46913;-70
2022/03/31 04:14:11;;;;;;;;;28.00;20.50;;;;;16.06;59.58;100416.13;146609;571;46008;-70
2022/03/31 04:17:03;;;;;;;;;20.75;17.50;;;;;16.00;59.15;100412.47;146605;571;46017;-71
2022/03/31 04:19:56;;;;;;;;;20.75;14.00;;;;;15.86;60.16;100407.81;146607;582;46008;-71
2022/03/31 04:22:48;;;;;;;;;21.50;16.50;;;;;14.92;60.01;100252.09;146602;600;47010;-70
2022/03/31 04:25:40;;;;;;;;;20.50;15.50;;;;;15.79;60.25;100402.38;146608;578;45021;-69
2022/03/31 04:28:32;;;;;;;;;20.50;17.25;;;;;15.76;60.55;100400.56;146602;613;46016;-70
2022/03/31 04:31:26;;;;;;;;;22.25;18.50;;;;;15.78;59.59;100400.63;146606;579;46020;-68
2022/03/31 04:34:19;;;;;;;;;16.75;13.00;;;;;15.77;58.95;100404.09;146604;653;46016;-69
2022/03/31 04:37:12;;;;;;;;;20.25;16.00;;;;;15.78;59.33;100408.47;146606;673;47008;-68
2022/03/31 04:40:04;;;;;;;;;19.75;14.25;;;;;15.84;58.23;100400.78;146602;653;47010;-70
2022/03/31 04:42:56;;;;;;;;;21.50;19.75;;;;;15.88;58.64;100397.38;146603;664;47008;-70
2022/03/31 04:45:49;;;;;;;;;19.25;18.50;;;;;15.90;58.84;100409.66;146604;575;46010;-69
2022/03/31 04:48:41;;;;;;;;;18.25;16.00;;;;;15.89;59.88;100422.69;146604;565;46021;-69
2022/03/31 04:51:33;;;;;;;;;21.00;17.50;;;;;15.93;59.79;100420.19;146603;578;46016;-68
2022/03/31 04:54:26;;;;;;;;;19.75;16.50;;;;;15.93;60.23;100421.91;146608;632;46008;-69
2022/03/31 04:57:21;;;;;;;;;26.50;19.00;;;;;15.93;60.46;100420.19;146602;613;46010;-70
2022/03/31 05:00:14;;;;;;;;;19.25;14.75;;;;;15.94;60.05;100407.97;146606;593;46020;-68
2022/03/31 05:03:06;;;;;;;;;21.25;17.00;;;;;15.90;60.16;100398.31;146604;614;46011;-69
2022/03/31 05:05:58;;;;;;;;;21.00;18.75;;;;;15.89;59.85;100399.16;146603;591;47008;-71
2022/03/31 05:08:51;;;;;;;;;20.25;18.00;;;;;15.90;59.50;100398.31;146602;572;47010;-69
2022/03/31 05:11:43;;;;;;;;;22.25;17.50;;;;;15.94;58.90;100389.69;146606;566;46021;-69
2022/03/31 05:14:35;;;;;;;;;19.00;15.75;;;;;15.98;59.00;100388.94;146602;590;47010;-68
2022/03/31 05:17:27;;;;;;;;;21.00;18.75;;;;;15.99;59.31;100381.97;146608;569;46008;-70
2022/03/31 05:20:21;;;;;;;;;25.00;20.00;;;;;16.02;58.48;100393.37;146604;569;46016;-69
2022/03/31 05:23:17;;;;;;;;;23.75;16.50;;;;;16.04;57.22;100388.16;146604;593;46020;-70
2022/03/31 05:26:09;;;;;;;;;24.00;18.50;;;;;16.05;55.90;100380.38;146602;576;46017;-70
2022/03/31 05:29:01;;;;;;;;;24.50;20.25;;;;;16.15;56.07;100389.31;146601;609;47020;-70
2022/03/31 05:31:55;;;;;;;;;25.00;19.25;;;;;16.22;55.97;100387.72;146603;679;46017;-71
2022/03/31 05:34:47;;;;;;;;;15.50;12.25;;;;;16.20;55.30;100382.47;146606;603;47008;-71
2022/03/31 05:37:40;;;;;;;;;19.50;15.75;;;;;16.31;54.93;100365.25;146604;585;46016;-71
2022/03/31 05:40:32;;;;;;;;;25.25;22.00;;;;;16.37;55.18;100369.75;146608;641;46008;-71
2022/03/31 05:43:24;;;;;;;;;24.75;18.25;;;;;16.33;54.68;100357.47;146607;577;46010;-71
2022/03/31 05:46:17;;;;;;;;;15.75;15.00;;;;;16.38;55.27;100363.66;146607;611;47008;-73
2022/03/31 05:49:10;;;;;;;;;23.75;19.50;;;;;16.42;55.80;100364.59;146605;571;46017;-69
2022/03/31 05:52:02;;;;;;;;;26.75;17.50;;;;;16.37;56.38;100365.41;146607;600;46020;-70
2022/03/31 05:54:54;;;;;;;;;24.50;22.50;;;;;16.39;55.91;100379.41;146604;613;47012;-69
2022/03/31 05:57:47;;;;;;;;;25.25;22.00;;;;;16.39;56.29;100362.84;146606;581;47008;-70
2022/03/31 06:00:40;;;;;;;;;21.00;15.00;;;;;15.51;55.33;100196.94;146600;569;47013;-71
2022/03/31 06:03:32;;;;;;;;;33.25;23.25;;;;;16.46;55.86;100376.94;146606;572;46021;-72
2022/03/31 06:06:25;;;;;;;;;29.75;26.00;;;;;16.51;56.32;100368.31;146604;565;46010;-73
2022/03/31 06:09:17;;;;;;;;;22.50;19.00;;;;;16.48;55.65;100360.41;146604;618;46020;-73
2022/03/31 06:12:10;;;;;;;;;30.25;16.75;;;;;16.49;55.06;100351.69;146604;613;46016;-70
2022/03/31 06:15:03;;;;;;;;;20.25;16.50;;;;;16.53;55.38;100331.69;146607;594;46008;-70
2022/03/31 06:17:55;;;;;;;;;23.50;19.00;;;;;16.59;54.85;100324.84;146606;580;46016;-69
2022/03/31 06:20:47;;;;;;;;;23.00;19.75;;;;;16.67;54.12;100340.75;146606;612;46020;-69
2022/03/31 06:23:40;;;;;;;;;22.50;16.50;;;;;16.70;53.43;100359.13;146606;616;46012;-69
2022/03/31 06:26:32;;;;;;;;;22.75;16.00;;;;;16.76;54.06;100355.75;146606;694;47008;-70
2022/03/31 06:29:28;;;;;;;;;19.75;17.00;;;;;16.82;53.43;100355.87;146602;563;47010;-70
2022/03/31 06:32:20;;;;;;;;;24.25;20.75;;;;;16.88;52.90;100374.34;146604;697;46021;-71
2022/03/31 06:35:14;;;;;;;;;18.00;14.75;;;;;16.97;53.47;100371.03;146602;616;46016;-69
2022/03/31 06:38:07;;;;;;;;;25.25;18.75;;;;;17.04;53.17;100362.41;146604;572;46013;-71
2022/03/31 06:41:10;;;;;;;;;23.50;16.25;;;;;17.04;53.63;100339.75;146603;604;46016;-71
2022/03/31 06:44:02;;;;;;;;;20.50;16.25;;;;;17.03;53.40;100345.81;146610;570;45020;-71
2022/03/31 06:46:54;;;;;;;;;18.50;17.00;;;;;17.06;54.02;100326.66;146603;605;47012;-71
2022/03/31 06:49:46;;;;;;;;;23.00;14.00;;;;;17.05;54.06;100327.53;146602;660;47008;-71
2022/03/31 06:52:38;;;;;;;;;24.00;16.00;;;;;16.99;54.04;100323.06;146604;606;46912;-71
2022/03/31 06:55:30;;;;;;;;;20.00;15.00;;;;;17.07;53.61;100331.03;146607;587;46008;-71
2022/03/31 06:58:25;;;;;;;;;17.00;13.75;;;;;17.13;53.80;100328.53;146603;609;46016;-71
2022/03/31 07:01:17;;;;;;;;;17.75;14.75;;;;;17.21;53.37;100344.41;146605;581;47008;-71
2022/03/31 07:04:10;;;;;;;;;23.50;14.50;;;;;17.30;52.87;100347.19;146605;583;46016;-72
2022/03/31 07:07:02;;;;;;;;;17.00;12.75;;;;;17.34;52.76;100350.75;146608;572;46009;-68
2022/03/31 07:09:57;;;;;;;;;20.00;18.00;;;;;17.41;53.08;100337.78;146603;612;46017;-71
2022/03/31 07:12:49;;;;;;;;;17.75;15.00;;;;;17.46;53.50;100338.75;146609;614;46008;-72
2022/03/31 07:15:41;;;;;;;;;20.75;16.50;;;;;17.52;53.38;100344.09;146605;617;46018;-72
2022/03/31 07:18:34;;;;;;;;;20.00;15.00;;;;;17.61;52.56;100368.72;146607;742;47008;-72
2022/03/31 07:21:26;;;;;;;;;22.25;17.25;;;;;17.58;53.03;100366.03;146601;644;47010;-73
2022/03/31 07:24:18;;;;;;;;;23.75;20.00;;;;;17.59;53.37;100367.78;146603;659;47010;-72
2022/03/31 07:27:11;;;;;;;;;20.25;17.25;;;;;17.59;53.00;100365.16;146601;595;47012;-73
2022/03/31 07:30:03;;;;;;;;;33.25;23.00;;;;;17.60;53.00;100369.53;146602;595;46020;-72
2022/03/31 07:33:03;;;;;;;;;26.25;24.50;;;;;17.58;52.26;100363.41;146602;575;47012;-72
2022/03/31 07:35:55;;;;;;;;;24.75;22.50;;;;;17.57;51.69;100353.75;146605;565;46020;-72
2022/03/31 07:38:48;;;;;;;;;24.00;20.50;;;;;17.58;52.30;100347.69;146604;660;46011;-73
2022/03/31 07:41:40;;;;;;;;;21.25;17.50;;;;;17.59;51.73;100347.69;146605;569;46020;-73
2022/03/31 07:44:32;;;;;;;;;24.50;19.00;;;;;17.61;51.17;100338.13;146603;613;46016;-72
2022/03/31 07:47:24;;;;;;;;;25.75;18.25;;;;;17.58;52.41;100343.31;146605;596;46020;-72
2022/03/31 07:50:20;;;;;;;;;30.50;23.50;;;;;17.53;52.53;100348.47;146599;627;46016;-72
2022/03/31 07:53:14;;;;;;;;;31.50;20.50;;;;;17.55;52.10;100359.00;146609;578;46021;-73
2022/03/31 07:56:09;;;;;;;;;18.75;15.75;;;;;17.59;51.55;100357.31;146598;625;47010;-73
2022/03/31 07:59:01;;;;;;;;;44.50;33.50;;;;;17.62;51.93;100362.59;146606;632;46020;-73
2022/03/31 08:01:54;;;;;;;;;31.50;25.25;;;;;17.63;51.96;100359.09;146601;588;47010;-68
2022/03/31 08:04:46;;;;;;;;;27.25;22.50;;;;;17.63;51.27;100366.97;146605;588;46008;-74
2022/03/31 08:07:39;;;;;;;;;17.50;15.25;;;;;17.59;50.79;100375.66;146626;588;46010;-72
2022/03/31 08:10:31;;;;;;;;;21.50;18.00;;;;;17.61;51.44;100373.97;146629;602;45008;-72
2022/03/31 08:13:31;;;;;;;;;25.75;21.75;;;;;17.66;52.08;100402.03;146629;612;45023;-72
2022/03/31 08:16:25;;;;;;;;;18.25;16.25;;;;;17.58;51.99;100395.75;146629;607;45020;-72
2022/03/31 08:19:18;;;;;;;;;22.50;17.25;;;;;17.61;52.39;100394.94;146625;605;45016;-72
2022/03/31 08:22:11;;;;;;;;;16.50;9.75;;;;;17.58;52.83;100384.38;146629;597;45021;-72
2022/03/31 08:25:03;;;;;;;;;28.00;22.25;;;;;17.59;53.01;100380.91;146626;588;46010;-72
2022/03/31 08:27:55;;;;;;;;;22.50;18.25;;;;;17.59;53.56;100376.53;146628;565;45020;-72
2022/03/31 08:30:47;;;;;;;;;27.00;21.25;;;;;17.51;54.20;100386.03;146619;581;46012;-73
2022/03/31 08:33:40;;;;;;;;;27.25;18.00;;;;;17.46;54.73;100390.28;146626;579;45008;-72
2022/03/31 08:36:32;;;;;;;;;27.75;18.25;;;;;17.36;54.21;100406.72;146623;596;47912;-72
2022/03/31 08:39:24;;;;;;;;;19.25;13.75;;;;;17.33;53.75;100393.56;146627;596;46008;-73
2022/03/31 08:42:17;;;;;;;;;19.25;13.75;;;;;17.29;55.44;100369.03;146628;607;45016;-72
2022/03/31 08:45:11;;;;;;;;;25.75;20.50;;;;;17.17;56.03;100351.34;146629;588;45021;-72
2022/03/31 08:48:03;;;;;;;;;26.00;20.50;;;;;17.04;56.18;100339.75;146629;670;45010;-72
2022/03/31 08:50:55;;;;;;;;;26.50;22.25;;;;;16.97;56.50;100366.66;146629;670;45008;-72
2022/03/31 08:53:47;;;;;;;;;21.25;18.50;;;;;16.90;56.48;100401.44;146626;597;45017;-72
2022/03/31 08:56:41;;;;;;;;;25.00;19.50;;;;;16.83;56.76;100394.31;146628;629;45918;-71
2022/03/31 08:59:33;;;;;;;;;16.50;15.25;;;;;16.84;55.89;100369.91;146628;575;45012;-72
2022/03/31 09:02:30;;;;;;;;;20.25;17.50;;;;;16.94;55.35;100371.84;146627;571;45020;-72
2022/03/31 09:05:22;;;;;;;;;18.25;12.00;;;;;16.99;54.86;100377.19;146625;614;45021;-73
2022/03/31 09:08:16;;;;;;;;;15.50;13.75;;;;;17.04;54.54;100431.44;146604;597;46020;-71
2022/03/31 09:11:08;;;;;;;;;25.75;17.50;;;;;17.17;54.17;100413.34;146602;569;46012;-72
2022/03/31 09:14:03;;;;;;;;;21.00;15.50;;;;;17.28;54.04;100417.03;146605;564;47008;-70
2022/03/31 09:16:55;;;;;;;;;20.00;15.25;;;;;17.34;54.04;100438.13;146602;581;47010;-72
2022/03/31 09:19:47;;;;;;;;;20.25;13.50;;;;;17.39;54.67;100456.56;146607;579;45020;-72
2022/03/31 09:22:53;;;;;;;;;17.00;14.00;;;;;17.42;54.81;100469.72;146605;631;46912;-71
2022/03/31 09:25:45;;;;;;;;;20.50;14.50;;;;;17.37;55.69;100464.37;146606;593;46020;-71
2022/03/31 09:28:38;;;;;;;;;21.50;14.25;;;;;17.26;55.87;100455.44;146604;622;46010;-72
2022/03/31 09:31:30;;;;;;;;;19.00;16.00;;;;;17.29;56.39;100448.53;146603;597;47008;-72
2022/03/31 09:34:23;;;;;;;;;24.50;18.50;;;;;17.27;56.31;100436.25;146604;607;46016;-72
2022/03/31 09:37:16;;;;;;;;;23.25;15.75;;;;;17.35;56.25;100431.13;146602;587;47008;-71
2022/03/31 09:40:09;;;;;;;;;17.25;15.25;;;;;17.44;56.37;100426.94;146604;672;47010;-73
2022/03/31 09:43:03;;;;;;;;;20.00;18.50;;;;;17.52;55.93;100409.63;146604;564;46021;-72
2022/03/31 09:45:55;;;;;;;;;21.00;17.25;;;;;17.61;55.38;100384.44;146605;588;46016;-72
2022/03/31 09:48:50;;;;;;;;;19.25;14.50;;;;;17.70;55.14;100367.13;146606;591;46020;-72
2022/03/31 09:51:43;;;;;;;;;20.00;16.00;;;;;17.75;55.17;100362.81;146602;653;46010;-71
2022/03/31 09:54:37;;;;;;;;;18.00;14.50;;;;;17.75;54.27;100338.34;146605;614;46020;-72
2022/03/31 09:57:30;;;;;;;;;21.75;15.50;;;;;17.81;54.89;100282.53;146600;663;46017;-72
2022/03/31 10:00:22;;;;;;;;;24.25;19.75;;;;;17.88;54.37;100266.91;146609;672;46020;-72
2022/03/31 10:03:18;;;;;;;;;20.75;16.50;;;;;17.94;53.43;100250.34;146604;593;46016;-72
2022/03/31 10:06:11;;;;;;;;;18.25;15.50;;;;;17.98;53.20;100249.56;146607;582;46008;-71
2022/03/31 10:09:05;;;;;;;;;16.00;13.00;;;;;17.99;52.21;100259.19;146603;571;46012;-72
2022/03/31 10:12:27;;;;;;;;;18.50;13.75;;;;;18.09;52.30;100274.16;146607;643;47008;-72
2022/03/31 10:15:31;;;;;;;;;14.75;8.75;;;;;18.10;51.75;100268.09;146604;598;46910;-73
2022/03/31 10:18:24;;;;;;;;;16.00;14.50;;;;;18.26;52.29;100303.28;146607;570;46008;-73
2022/03/31 10:21:16;;;;;;;;;23.25;12.75;;;;;18.38;52.28;100324.44;146601;614;47010;-72
2022/03/31 10:27:29;;;;;;;;;19.25;15.00;;;;;18.59;52.11;100344.81;146600;605;47013;-72
2022/03/31 10:30:30;;;;;;;;;18.25;13.50;;;;;18.52;53.10;100324.59;146606;570;46021;-73
2022/03/31 10:33:33;;;;;;;;;13.75;11.50;;;;;18.26;53.44;100319.03;146603;700;45912;-73
2022/03/31 10:36:26;;;;;;;;;16.00;12.75;;;;;18.10;54.47;100307.44;146603;591;47008;-73
2022/03/31 10:39:26;;;;;;;;;21.00;16.25;;;;;18.09;54.68;100268.06;146604;703;46912;-72
2022/03/31 10:42:18;;;;;;;;;19.75;17.25;;;;;18.12;54.07;100263.72;146607;569;46020;-73
2022/03/31 10:45:19;;;;;;;;;26.50;19.50;;;;;18.22;53.68;100231.50;146602;595;46041;-72
2022/03/31 10:48:26;;;;;;;;;17.50;14.00;;;;;18.36;53.58;100241.28;146608;644;47010;-72
2022/03/31 10:51:19;;;;;;;;;17.25;14.75;;;;;18.42;53.00;100204.59;146605;564;46016;-72
2022/03/31 10:54:14;;;;;;;;;22.25;16.25;;;;;18.42;52.37;100189.72;146606;600;47008;-72
2022/03/31 10:57:18;;;;;;;;;21.25;17.25;;;;;18.42;51.65;100179.22;146606;564;46010;-72
2022/03/31 11:00:11;;;;;;;;;20.75;13.75;;;;;18.45;51.13;100179.25;146606;577;46020;-72
2022/03/31 11:03:03;;;;;;;;;18.25;16.25;;;;;18.44;50.86;100172.25;146602;571;46026;-72
2022/03/31 11:06:01;;;;;;;;;21.50;15.00;;;;;18.55;51.11;100182.00;146606;638;47008;-73
2022/03/31 11:08:53;;;;;;;;;20.25;15.25;;;;;18.52;50.73;100189.81;146603;590;47010;-73
2022/03/31 11:11:46;;;;;;;;;16.25;12.00;;;;;18.47;51.07;100223.87;146608;634;46021;-72
2022/03/31 11:14:38;;;;;;;;;23.50;15.50;;;;;18.51;51.05;100233.59;146603;612;47010;-72
2022/03/31 11:17:32;;;;;;;;;20.00;15.25;;;;;18.56;51.53;100266.00;146607;609;46020;-72
2022/03/31 11:20:28;;;;;;;;;15.50;11.50;;;;;18.53;51.91;100262.47;146603;570;47012;-71
2022/03/31 11:23:20;;;;;;;;;18.75;13.75;;;;;18.36;52.86;100252.66;146605;593;46020;-71
2022/03/31 11:26:13;;;;;;;;;20.25;13.75;;;;;18.23;53.30;100258.63;146603;570;46010;-72
2022/03/31 11:29:06;;;;;;;;;18.25;11.75;;;;;18.10;54.08;100254.06;146607;603;46008;-72
2022/03/31 11:31:59;;;;;;;;;16.75;13.50;;;;;18.01;54.08;100249.59;146604;571;47010;-72
2022/03/31 11:34:54;;;;;;;;;16.00;10.75;;;;;17.95;54.19;100266.12;146607;566;47008;-72
2022/03/31 11:37:54;;;;;;;;;16.00;15.00;;;;;18.04;54.22;100238.22;146601;580;46016;-72
2022/03/31 11:40:51;;;;;;;;;20.50;13.25;;;;;18.12;54.32;100239.22;146607;582;46021;-72
2022/03/31 11:43:43;;;;;;;;;16.00;12.00;;;;;18.08;54.82;100245.31;146602;618;46010;-72
2022/03/31 11:46:49;;;;;;;;;15.00;10.00;;;;;18.07;55.22;100227.78;146607;654;46008;-73
2022/03/31 11:49:43;;;;;;;;;14.50;12.00;;;;;18.08;54.08;100235.69;146603;591;47010;-73
2022/03/31 11:52:37;;;;;;;;;16.00;14.75;;;;;18.08;54.12;100209.44;146603;582;47008;-72
2022/03/31 11:55:29;;;;;;;;;19.75;13.75;;;;;18.16;54.08;100238.41;146601;608;46912;-72
2022/03/31 11:58:21;;;;;;;;;21.50;15.75;;;;;18.24;53.53;100281.37;146606;571;47008;-71
2022/03/31 12:01:14;;;;;;;;;16.50;10.75;;;;;18.32;52.61;100285.00;146604;569;46016;-73
2022/03/31 12:04:07;;;;;;;;;15.25;12.00;;;;;18.44;52.96;100268.47;146606;586;46020;-71
2022/03/31 12:07:03;;;;;;;;;17.75;11.75;;;;;17.81;51.59;100148.78;146601;579;46010;-72
2022/03/31 12:09:57;;;;;;;;;20.00;14.25;;;;;18.59;51.62;100260.78;146605;601;46020;-72
2022/03/31 12:12:58;;;;;;;;;14.50;13.00;;;;;18.57;51.76;100253.78;146605;686;46016;-72
2022/03/31 12:15:50;;;;;;;;;20.00;13.00;;;;;18.51;52.58;100267.72;146609;569;46008;-71
2022/03/31 12:18:43;;;;;;;;;17.25;11.25;;;;;18.61;52.72;100289.72;146605;570;46016;-72
2022/03/31 12:21:36;;;;;;;;;18.50;15.50;;;;;18.82;52.41;100284.72;146604;725;46020;-72
2022/03/31 12:24:28;;;;;;;;;19.00;12.25;;;;;19.08;51.47;100281.47;146606;579;46016;-72
2022/03/31 12:27:24;;;;;;;;;15.75;14.25;;;;;19.18;51.51;100251.78;146608;589;46021;-71
2022/03/31 12:30:16;;;;;;;;;18.25;14.00;;;;;19.19;51.59;100252.66;146604;611;46016;-71
2022/03/31 12:33:39;;;;;;;;;17.25;14.00;;;;;18.53;50.69;100087.44;146605;582;46021;-72
2022/03/31 12:36:37;;;;;;;;;22.75;13.50;;;;;19.26;50.46;100213.31;146604;569;46012;-71
2022/03/31 12:39:30;;;;;;;;;16.50;13.25;;;;;19.25;50.09;100224.69;146608;582;46008;-71
2022/03/31 12:42:22;;;;;;;;;22.00;14.25;;;;;19.27;50.47;100235.22;146608;610;46912;-71
2022/03/31 12:45:19;;;;;;;;;16.00;11.75;;;;;19.27;50.83;100215.06;146605;613;46020;-71
2022/03/31 12:48:13;;;;;;;;;22.25;14.00;;;;;19.17;50.06;100204.47;146601;579;46017;-71
2022/03/31 12:51:05;;;;;;;;;16.75;12.75;;;;;19.09;49.74;100205.28;146602;574;46020;-71
2022/03/31 12:53:58;;;;;;;;;21.25;13.25;;;;;18.95;50.32;100206.91;146604;602;46016;-71
2022/03/31 12:56:52;;;;;;;;;18.00;15.25;;;;;18.89;50.11;100233.13;146606;565;46008;-71
2022/03/31 12:59:45;;;;;;;;;18.25;12.75;;;;;18.81;50.51;100259.31;146601;573;47010;-71
2022/03/31 13:02:38;;;;;;;;;15.25;10.75;;;;;18.72;50.94;100285.44;146606;621;47008;-72
2022/03/31 13:05:32;;;;;;;;;18.25;14.75;;;;;18.72;50.87;100313.44;146601;674;46016;-71
2022/03/31 13:08:24;;;;;;;;;17.50;13.75;;;;;18.73;50.67;100328.41;146607;604;46020;-71
2022/03/31 13:11:17;;;;;;;;;21.00;17.75;;;;;18.74;51.12;100317.91;146603;606;46028;-71
2022/03/31 13:14:10;;;;;;;;;25.00;17.00;;;;;18.75;50.95;100285.50;146607;641;46008;-71